Terminal Aerodrome Forecast
Issued by NWS

Home | Current Version | Previous Version | Text Only | Print | Product List | Glossary On
Versions: 1 2 3 4 5 6 7 8 9 10 11 12 13 14
000
FTAK31 PAJN 301949 AAB
TAFASI
TAF AMD
PASI 301949Z 3020/3118 09015KT 5SM RA BR BKN015 OVC030
     FM310000 24012KT 5SM -RA BR SCT015 OVC030
     FM310300 19011KT 6SM -SHRA BR SCT020 OVC035
     FM310900 23007KT P6SM VCSH SCT025 OVC050=

USA.gov is the U.S. government's official web portal to all federal, state and local government web resources and services.